Time;durP1;ratioP1;P1;durP2;ratioP2;P2;SDS_P1;SDS_P2;PMS_P1;PMS_P2;Temp;Humidity;BMP_temperature;BMP_pressure;BME280_temperature;BME280_humidity;BME280_pressure;Samples;Min_cycle;Max_cycle;Signal;HPM_P1;HPM_P2
2022/06/11 00:01:12;;;;;;;4.87;4.47;;;15.50;99.90;;;;;;5044240;28;20455;-65
2022/06/11 00:03:38;;;;;;;5.43;4.57;;;15.40;99.90;;;;;;5039162;28;20445;-65
2022/06/11 00:06:04;;;;;;;6.87;6.17;;;15.40;99.90;;;;;;5043212;28;20444;-65
2022/06/11 00:08:30;;;;;;;6.17;5.57;;;15.40;99.90;;;;;;5048353;28;20435;-65
2022/06/11 00:10:56;;;;;;;5.13;4.50;;;15.40;99.90;;;;;;5056978;28;20228;-65
2022/06/11 00:13:22;;;;;;;5.87;5.37;;;15.40;99.90;;;;;;5042553;28;20913;-65
2022/06/11 00:15:49;;;;;;;6.13;5.53;;;15.30;99.90;;;;;;5040114;28;20584;-65
2022/06/11 00:18:16;;;;;;;8.70;5.40;;;15.30;99.90;;;;;;5033260;28;20836;-65
2022/06/11 00:20:41;;;;;;;6.00;5.50;;;15.20;99.90;;;;;;5032583;28;20552;-65
2022/06/11 00:23:07;;;;;;;5.63;5.13;;;15.20;99.90;;;;;;5048079;28;20518;-65
2022/06/11 00:25:34;;;;;;;5.13;4.73;;;15.20;99.90;;;;;;5043496;28;20213;-65
2022/06/11 00:28:00;;;;;;;4.77;4.40;;;15.10;99.90;;;;;;5052283;28;20182;-65
2022/06/11 00:30:26;;;;;;;4.07;3.70;;;15.10;99.90;;;;;;5054595;28;20431;-65
2022/06/11 00:32:52;;;;;;;4.13;3.70;;;15.10;99.90;;;;;;5046139;28;20460;-65
2022/06/11 00:35:18;;;;;;;4.60;4.20;;;15.10;99.90;;;;;;5055646;28;20184;-65
2022/06/11 00:37:44;;;;;;;7.97;4.30;;;15.10;99.90;;;;;;5050068;28;20451;-65
2022/06/11 00:40:13;;;;;;;4.60;4.30;;;15.10;99.90;;;;;;5041800;28;20552;-65
2022/06/11 00:42:38;;;;;;;5.60;4.00;;;15.10;99.90;;;;;;5047906;28;20465;-65
2022/06/11 00:45:12;;;;;;;4.67;4.27;;;15.00;99.90;;;;;;5033368;28;20433;-65
2022/06/11 00:47:38;;;;;;;3.87;3.67;;;15.00;99.90;;;;;;5055631;28;20190;-65
2022/06/11 00:50:20;;;;;;;4.73;4.13;;;15.00;99.90;;;;;;5039390;28;20507;-65
2022/06/11 00:52:47;;;;;;;4.03;3.57;;;15.10;99.90;;;;;;5039796;28;20450;-65
2022/06/11 00:55:17;;;;;;;4.87;4.47;;;15.10;99.90;;;;;;5056224;28;20489;-65
2022/06/11 00:57:49;;;;;;;4.50;3.80;;;15.10;99.90;;;;;;5041167;28;20536;-65
2022/06/11 01:00:20;;;;;;;4.50;3.70;;;15.10;99.90;;;;;;5054605;28;20447;-65
2022/06/11 01:02:47;;;;;;;4.13;3.20;;;15.10;99.90;;;;;;5046483;28;20519;-65
2022/06/11 01:05:23;;;;;;;4.60;4.20;;;15.00;99.90;;;;;;5041642;28;20437;-65
2022/06/11 01:08:15;;;;;;;4.10;3.70;;;15.00;99.90;;;;;;5051419;28;20491;-65
2022/06/11 01:11:10;;;;;;;5.60;4.20;;;15.00;99.90;;;;;;5038909;28;20447;-65
2022/06/11 01:13:46;;;;;;;7.23;6.40;;;14.90;99.90;;;;;;5047303;28;20472;-65
2022/06/11 01:16:30;;;;;;;5.40;4.83;;;14.80;99.90;;;;;;5049398;28;20432;-65
2022/06/11 01:19:42;;;;;;;4.50;4.10;;;14.70;99.90;;;;;;5046595;28;20456;-65
2022/06/11 01:22:52;;;;;;;3.77;3.53;;;14.70;99.90;;;;;;5027708;28;20488;-65
2022/06/11 01:25:32;;;;;;;7.60;4.57;;;14.70;99.90;;;;;;5055945;28;20543;-65
2022/06/11 01:28:29;;;;;;;4.47;4.17;;;14.70;99.90;;;;;;5060093;28;20792;-65
2022/06/11 01:30:55;;;;;;;4.67;4.27;;;14.70;99.90;;;;;;5034837;28;20517;-65
2022/06/11 01:33:45;;;;;;;4.70;4.30;;;14.80;99.90;;;;;;5040558;28;20909;-65
2022/06/11 01:36:19;;;;;;;4.50;4.13;;;14.80;99.90;;;;;;5032313;28;20193;-65
2022/06/11 01:39:04;;;;;;;4.57;4.10;;;14.80;99.90;;;;;;5049198;28;20457;-65
2022/06/11 01:41:48;;;;;;;4.33;3.93;;;14.80;99.90;;;;;;5040233;28;20969;-65
2022/06/11 01:44:19;;;;;;;4.40;4.07;;;14.80;99.90;;;;;;5046678;28;20458;-65
2022/06/11 01:46:50;;;;;;;4.90;3.63;;;14.70;99.90;;;;;;5047397;28;20464;-65
2022/06/11 01:49:25;;;;;;;4.67;3.30;;;14.70;99.90;;;;;;5041144;28;20447;-65
2022/06/11 01:52:34;;;;;;;4.60;4.20;;;14.60;99.90;;;;;;5049760;28;20462;-65
2022/06/11 01:55:28;;;;;;;4.50;3.73;;;14.60;99.90;;;;;;5039424;28;20472;-65
2022/06/11 01:58:22;;;;;;;4.00;3.30;;;14.60;99.90;;;;;;5037936;28;20984;-65
2022/06/11 02:01:05;;;;;;;4.30;4.03;;;14.60;99.90;;;;;;5048218;28;20489;-65
2022/06/11 02:03:40;;;;;;;7.50;3.90;;;14.60;99.90;;;;;;5051183;28;20436;-65
2022/06/11 02:06:18;;;;;;;6.27;4.33;;;14.60;99.90;;;;;;5054853;28;20434;-65
2022/06/11 02:08:55;;;;;;;4.20;3.90;;;14.60;99.90;;;;;;5036033;28;20436;-65
2022/06/11 02:12:10;;;;;;;4.70;4.30;;;14.60;99.90;;;;;;5035384;28;20845;-65
2022/06/11 02:14:54;;;;;;;4.77;4.37;;;14.50;99.90;;;;;;5030790;28;20441;-65
2022/06/11 02:17:28;;;;;;;4.33;4.03;;;14.50;99.90;;;;;;5047995;28;20995;-65
2022/06/11 02:20:14;;;;;;;4.20;3.90;;;14.40;99.90;;;;;;5032574;28;20522;-65
2022/06/11 02:22:49;;;;;;;4.80;4.00;;;14.40;99.90;;;;;;5053272;28;20439;-65
2022/06/11 02:25:27;;;;;;;3.90;3.60;;;14.40;99.90;;;;;;5049613;28;20435;-65
2022/06/11 02:27:55;;;;;;;4.43;4.03;;;14.30;99.90;;;;;;5052762;28;20434;-65
2022/06/11 02:30:25;;;;;;;3.97;3.40;;;14.20;99.90;;;;;;5032712;28;20532;-65
2022/06/11 02:32:51;;;;;;;3.37;3.17;;;14.20;99.90;;;;;;5053966;28;20443;-65
2022/06/11 02:35:38;;;;;;;5.33;4.10;;;14.20;99.90;;;;;;5053776;28;20497;-65
2022/06/11 02:38:08;;;;;;;5.70;3.87;;;14.10;99.90;;;;;;5051236;28;20890;-65
2022/06/11 02:40:40;;;;;;;4.43;4.03;;;14.20;99.90;;;;;;5042699;28;20444;-65
2022/06/11 02:43:06;;;;;;;4.33;4.03;;;14.10;99.90;;;;;;5054630;28;20736;-65
2022/06/11 02:45:31;;;;;;;5.70;4.97;;;14.10;99.90;;;;;;5054812;28;20526;-65
2022/06/11 02:47:57;;;;;;;4.20;3.90;;;14.10;99.90;;;;;;5046739;28;20182;-65
2022/06/11 02:50:27;;;;;;;4.50;4.10;;;14.00;99.90;;;;;;5047467;28;20225;-65
2022/06/11 02:52:54;;;;;;;4.43;3.97;;;14.00;99.90;;;;;;5049626;28;20246;-65
2022/06/11 02:55:20;;;;;;;3.60;3.30;;;14.00;99.90;;;;;;5060539;28;20467;-65
2022/06/11 02:57:46;;;;;;;3.73;3.43;;;13.90;99.90;;;;;;5032308;28;21011;-65
2022/06/11 03:00:16;;;;;;;4.60;4.13;;;13.90;99.90;;;;;;5045969;28;20464;-65
2022/06/11 03:02:45;;;;;;;4.70;4.30;;;13.90;99.90;;;;;;5037047;28;20434;-65
2022/06/11 03:05:11;;;;;;;4.87;4.37;;;13.90;99.90;;;;;;5047140;28;20435;-65
2022/06/11 03:07:37;;;;;;;4.20;3.90;;;13.90;99.90;;;;;;5040502;28;20796;-65
2022/06/11 03:10:03;;;;;;;5.10;3.97;;;14.00;99.90;;;;;;5046791;28;20208;-65
2022/06/11 03:12:29;;;;;;;5.83;4.67;;;14.00;99.90;;;;;;5032017;28;20213;-65
2022/06/11 03:14:54;;;;;;;4.33;3.93;;;13.90;99.90;;;;;;5051762;28;20440;-65
2022/06/11 03:17:20;;;;;;;5.77;5.00;;;13.90;99.90;;;;;;5041127;28;20178;-65
2022/06/11 03:19:46;;;;;;;6.57;4.20;;;14.00;99.90;;;;;;5058248;28;20208;-65
2022/06/11 03:22:12;;;;;;;8.07;4.90;;;14.00;99.90;;;;;;5051615;28;20817;-65
2022/06/11 03:24:38;;;;;;;3.60;3.30;;;14.00;99.90;;;;;;5040622;28;20192;-65
2022/06/11 03:27:04;;;;;;;3.73;3.27;;;14.00;99.90;;;;;;5039548;28;20910;-65
2022/06/11 03:29:30;;;;;;;4.73;4.33;;;14.00;99.90;;;;;;5042770;28;20189;-64
2022/06/11 03:31:56;;;;;;;4.97;4.57;;;14.00;99.90;;;;;;5046043;28;20483;-65
2022/06/11 03:34:22;;;;;;;4.30;3.90;;;14.00;99.90;;;;;;5050043;28;20947;-65
2022/06/11 03:36:52;;;;;;;5.13;3.93;;;14.10;99.90;;;;;;5051026;28;20198;-65
2022/06/11 03:39:18;;;;;;;4.53;4.13;;;14.10;99.90;;;;;;5047205;28;20961;-65
2022/06/11 03:41:44;;;;;;;4.80;4.40;;;14.10;99.90;;;;;;5044975;28;20512;-65
2022/06/11 03:44:12;;;;;;;4.60;3.90;;;14.10;99.90;;;;;;5062298;28;20427;-65
2022/06/11 03:46:37;;;;;;;12.30;4.80;;;14.10;99.90;;;;;;5037123;28;20504;-65
2022/06/11 03:49:04;;;;;;;4.50;4.10;;;14.20;99.90;;;;;;5043762;28;20440;-65
2022/06/11 03:51:30;;;;;;;5.77;5.27;;;14.20;99.90;;;;;;5051690;28;20206;-65
2022/06/11 03:53:56;;;;;;;4.90;4.60;;;14.20;99.90;;;;;;5052958;28;20443;-65
2022/06/11 03:56:21;;;;;;;5.07;4.50;;;14.30;99.90;;;;;;5040090;28;20954;-65
2022/06/11 03:58:49;;;;;;;5.00;4.40;;;14.40;99.90;;;;;;5049055;28;20281;-65
2022/06/11 04:01:16;;;;;;;4.27;3.93;;;14.40;99.90;;;;;;5050141;28;20198;-65
2022/06/11 04:03:58;;;;;;;4.73;3.73;;;14.50;99.90;;;;;;5056866;28;20526;-65
2022/06/11 04:06:28;;;;;;;4.80;4.03;;;14.50;99.90;;;;;;5038877;28;20444;-65
2022/06/11 04:08:54;;;;;;;4.60;4.23;;;14.60;99.90;;;;;;5044567;28;20513;-65
2022/06/11 04:11:20;;;;;;;6.80;4.70;;;14.70;99.90;;;;;;5038420;28;20547;-65
2022/06/11 04:13:47;;;;;;;4.20;3.80;;;14.80;99.90;;;;;;5048936;28;20436;-65
2022/06/11 04:16:32;;;;;;;4.50;4.10;;;14.80;99.90;;;;;;5033528;28;20440;-65
2022/06/11 04:19:00;;;;;;;4.30;4.00;;;15.00;99.90;;;;;;5040602;28;20793;-65
2022/06/11 04:21:28;;;;;;;4.00;3.70;;;15.10;99.90;;;;;;5050269;28;20991;-65
2022/06/11 04:23:57;;;;;;;4.80;4.30;;;15.10;99.90;;;;;;5038650;28;20436;-65
2022/06/11 04:26:30;;;;;;;5.70;4.00;;;15.30;99.90;;;;;;5050433;28;20459;-65
2022/06/11 04:28:57;;;;;;;5.10;4.67;;;15.40;99.90;;;;;;5046681;28;20443;-65
2022/06/11 04:31:23;;;;;;;4.67;4.23;;;15.60;99.90;;;;;;5053007;28;20541;-65
2022/06/11 04:33:49;;;;;;;4.63;4.23;;;15.60;99.90;;;;;;5051827;28;20436;-65
2022/06/11 04:36:18;;;;;;;4.30;4.00;;;15.80;99.90;;;;;;5048378;28;21025;-65
2022/06/11 04:38:44;;;;;;;7.33;5.43;;;15.90;99.90;;;;;;5040232;28;20226;-65
2022/06/11 04:41:10;;;;;;;5.30;4.07;;;16.00;99.90;;;;;;5038162;28;20460;-65
2022/06/11 04:43:36;;;;;;;6.27;5.53;;;16.20;99.90;;;;;;5052992;28;20438;-65
2022/06/11 04:46:02;;;;;;;5.50;4.30;;;16.20;99.90;;;;;;5047367;28;20443;-65
2022/06/11 04:48:29;;;;;;;6.83;4.03;;;16.40;99.90;;;;;;5049130;28;20182;-65
2022/06/11 04:50:55;;;;;;;4.20;3.90;;;16.50;99.90;;;;;;5055001;28;20505;-65
2022/06/11 04:53:21;;;;;;;5.50;3.90;;;16.60;99.90;;;;;;5053709;28;20458;-65
2022/06/11 04:55:46;;;;;;;4.60;4.20;;;16.80;99.90;;;;;;5047362;28;20190;-65
2022/06/11 04:58:13;;;;;;;4.47;4.10;;;16.90;99.90;;;;;;5049412;28;20204;-65
2022/06/11 05:00:39;;;;;;;6.50;3.90;;;17.10;99.90;;;;;;5053702;28;20204;-65
2022/06/11 05:03:05;;;;;;;4.70;4.17;;;17.30;99.90;;;;;;5042007;28;20433;-65
2022/06/11 05:05:31;;;;;;;4.50;4.17;;;17.40;99.90;;;;;;5055007;28;20535;-65
2022/06/11 05:07:57;;;;;;;4.20;3.90;;;17.50;99.90;;;;;;5040348;28;20451;-65
2022/06/11 05:10:25;;;;;;;4.53;4.13;;;17.60;99.90;;;;;;5055071;28;20180;-65
2022/06/11 05:12:51;;;;;;;3.83;3.53;;;17.70;99.90;;;;;;5031432;28;20495;-65
2022/06/11 05:15:17;;;;;;;4.30;4.00;;;17.80;99.90;;;;;;5049851;28;20464;-65
2022/06/11 05:17:43;;;;;;;3.93;3.63;;;17.90;99.90;;;;;;5054393;28;20207;-65
2022/06/11 05:20:10;;;;;;;4.17;3.87;;;18.10;99.90;;;;;;5054130;28;20681;-65
2022/06/11 05:22:36;;;;;;;4.40;4.10;;;18.20;99.90;;;;;;5048666;28;20565;-65
2022/06/11 05:25:02;;;;;;;3.73;3.50;;;18.40;99.90;;;;;;5049374;28;20471;-65
2022/06/11 05:27:28;;;;;;;5.30;3.90;;;18.60;99.90;;;;;;5061379;28;20499;-65
2022/06/11 05:30:00;;;;;;;4.20;3.50;;;18.80;99.90;;;;;;5069788;28;20527;-65
2022/06/11 05:32:29;;;;;;;4.13;3.73;;;19.00;99.90;;;;;;5049624;28;20200;-65
2022/06/11 05:34:59;;;;;;;3.80;3.50;;;19.20;99.90;;;;;;5047036;28;20433;-66
2022/06/11 05:37:25;;;;;;;3.90;3.50;;;19.40;99.90;;;;;;5048355;28;20794;-66
2022/06/11 05:39:50;;;;;;;3.37;3.17;;;19.50;99.90;;;;;;5054697;28;20489;-66
2022/06/11 05:42:18;;;;;;;4.80;4.00;;;19.60;99.90;;;;;;5048874;28;20239;-66
2022/06/11 05:44:44;;;;;;;4.17;3.43;;;19.70;99.90;;;;;;5031200;28;20181;-66
2022/06/11 05:47:13;;;;;;;4.23;3.93;;;19.90;99.90;;;;;;5048848;28;20537;-66
2022/06/11 05:49:42;;;;;;;3.47;3.17;;;20.00;99.90;;;;;;5052720;28;20435;-66
2022/06/11 05:52:15;;;;;;;4.10;3.77;;;19.90;99.90;;;;;;5048715;28;20463;-66
2022/06/11 05:54:41;;;;;;;3.63;3.33;;;19.90;99.90;;;;;;5044870;28;20442;-66
2022/06/11 05:57:11;;;;;;;3.43;3.20;;;20.00;99.90;;;;;;5035832;28;21005;-66
2022/06/11 05:59:43;;;;;;;3.27;3.07;;;20.10;99.90;;;;;;5052117;28;20488;-66
2022/06/11 06:02:11;;;;;;;4.00;3.70;;;20.20;99.90;;;;;;5054525;28;20450;-66
2022/06/11 06:04:38;;;;;;;3.23;2.90;;;20.40;99.90;;;;;;5048155;28;20450;-66
2022/06/11 06:07:05;;;;;;;3.00;2.80;;;20.50;99.90;;;;;;5046851;28;20486;-66
2022/06/11 06:09:31;;;;;;;3.50;3.20;;;20.60;99.90;;;;;;5050959;28;20440;-66
2022/06/11 06:11:56;;;;;;;3.57;3.37;;;21.00;99.90;;;;;;5056086;28;20489;-66
2022/06/11 06:14:22;;;;;;;3.20;2.90;;;21.30;99.90;;;;;;5045419;28;20267;-66
2022/06/11 06:16:47;;;;;;;3.60;3.30;;;21.50;99.90;;;;;;5046761;28;20189;-66
2022/06/11 06:19:13;;;;;;;3.57;3.37;;;21.60;99.90;;;;;;5057208;28;20230;-66
2022/06/11 06:21:38;;;;;;;4.80;3.03;;;21.70;99.90;;;;;;5047856;28;20213;-66
2022/06/11 06:24:05;;;;;;;3.13;2.67;;;21.50;99.90;;;;;;5046215;28;20183;-66
2022/06/11 06:26:31;;;;;;;4.03;3.57;;;21.60;99.90;;;;;;5050625;28;20633;-66
2022/06/11 06:28:56;;;;;;;4.00;3.00;;;21.80;99.90;;;;;;5058049;28;20431;-66
2022/06/11 06:31:22;;;;;;;3.20;3.00;;;21.80;99.90;;;;;;5052629;28;20607;-66
2022/06/11 06:33:50;;;;;;;2.80;2.60;;;21.90;99.90;;;;;;5047608;28;20589;-66
2022/06/11 06:36:16;;;;;;;3.23;2.60;;;21.70;99.90;;;;;;5046666;28;20477;-66
2022/06/11 06:38:42;;;;;;;3.20;2.83;;;21.80;99.90;;;;;;5050694;28;20460;-66
2022/06/11 06:41:08;;;;;;;5.27;3.10;;;22.10;99.90;;;;;;5044693;28;20201;-66
2022/06/11 06:43:34;;;;;;;3.00;2.40;;;22.50;99.90;;;;;;5049014;28;20804;-66
2022/06/11 06:46:00;;;;;;;3.40;3.10;;;22.80;99.90;;;;;;5046439;28;20216;-66
2022/06/11 06:48:26;;;;;;;3.10;2.67;;;22.80;99.80;;;;;;5034286;28;20436;-66
2022/06/11 06:50:53;;;;;;;4.23;3.83;;;22.60;99.70;;;;;;5057518;28;20450;-66
2022/06/11 06:53:20;;;;;;;3.77;3.47;;;22.30;99.90;;;;;;5057323;28;20466;-66
2022/06/11 06:55:45;;;;;;;2.70;2.60;;;22.20;99.90;;;;;;5050382;28;20502;-66
2022/06/11 06:58:14;;;;;;;2.90;2.70;;;22.20;99.90;;;;;;5050539;28;20433;-66
2022/06/11 07:00:40;;;;;;;3.03;2.83;;;22.40;99.90;;;;;;5049246;28;20193;-66
2022/06/11 07:03:06;;;;;;;3.13;2.87;;;22.60;99.90;;;;;;5057451;28;20441;-66
2022/06/11 07:05:31;;;;;;;3.00;2.80;;;22.60;99.80;;;;;;5053576;28;20177;-66
2022/06/11 07:07:57;;;;;;;2.83;2.60;;;23.10;99.30;;;;;;5037643;28;20547;-66
2022/06/11 07:10:24;;;;;;;4.17;3.77;;;23.60;97.90;;;;;;5052307;28;21780;-66
2022/06/11 07:12:50;;;;;;;3.30;3.10;;;24.00;96.70;;;;;;5051320;28;20177;-66
2022/06/11 07:15:16;;;;;;;3.57;2.90;;;24.20;95.70;;;;;;5036425;28;20439;-66
2022/06/11 07:17:47;;;;;;;4.73;3.40;;;24.20;95.60;;;;;;5046631;28;20431;-66
2022/06/11 07:20:18;;;;;;;3.90;2.70;;;24.50;95.80;;;;;;5056872;28;20466;-66
2022/06/11 07:22:51;;;;;;;6.83;3.30;;;24.80;95.20;;;;;;5049797;28;20527;-66
2022/06/11 07:25:17;;;;;;;3.27;2.97;;;25.00;94.60;;;;;;5054956;28;20531;-66
2022/06/11 07:27:49;;;;;;;4.93;3.20;;;25.20;94.30;;;;;;5041107;28;20551;-66
2022/06/11 07:30:18;;;;;;;2.77;2.57;;;25.10;94.00;;;;;;5042663;28;20586;-66
2022/06/11 07:32:51;;;;;;;4.30;3.10;;;25.30;93.90;;;;;;5049998;28;20463;-66
2022/06/11 07:35:17;;;;;;;5.97;3.63;;;25.40;93.60;;;;;;5049947;28;20547;-66
2022/06/11 07:37:44;;;;;;;3.47;3.17;;;25.60;93.40;;;;;;5041144;28;20451;-66
2022/06/11 07:40:11;;;;;;;6.87;3.43;;;26.00;92.00;;;;;;5049292;28;20460;-66
2022/06/11 07:42:37;;;;;;;3.80;2.90;;;26.40;91.30;;;;;;5048768;28;20452;-66
2022/06/11 07:45:04;;;;;;;3.07;2.77;;;26.50;90.20;;;;;;5046556;28;20442;-66
2022/06/11 07:50:13;;;;;;;3.63;3.30;;;26.80;90.00;;;;;;5056581;28;20950;-66
2022/06/11 07:52:39;;;;;;;3.30;3.00;;;26.90;89.10;;;;;;5050484;28;20457;-66
2022/06/11 07:55:06;;;;;;;3.10;2.80;;;27.00;87.70;;;;;;5049384;28;20265;-66
2022/06/11 07:57:32;;;;;;;4.80;2.90;;;27.20;88.30;;;;;;5050694;28;20442;-66
2022/06/11 07:59:58;;;;;;;3.03;2.83;;;27.40;87.00;;;;;;5059169;28;20543;-66
2022/06/11 08:02:24;;;;;;;3.07;2.50;;;27.20;85.00;;;;;;5054566;28;20288;-66
2022/06/11 08:04:50;;;;;;;3.93;3.63;;;27.10;83.40;;;;;;5049601;28;20520;-67
2022/06/11 08:07:15;;;;;;;3.40;2.80;;;27.10;84.20;;;;;;5049782;28;20872;-67
2022/06/11 08:09:41;;;;;;;2.67;2.47;;;27.30;81.10;;;;;;5055464;28;20185;-67
2022/06/11 08:12:07;;;;;;;4.17;3.30;;;27.20;81.30;;;;;;5037843;28;20589;-67
2022/06/11 08:14:32;;;;;;;4.07;3.63;;;27.10;79.80;;;;;;5049601;28;20178;-67
2022/06/11 08:16:58;;;;;;;3.87;3.10;;;27.40;79.20;;;;;;5045319;28;20223;-67
2022/06/11 08:19:23;;;;;;;3.63;2.67;;;27.60;78.70;;;;;;5038505;28;20200;-67
2022/06/11 08:21:49;;;;;;;3.27;3.00;;;27.90;79.00;;;;;;5053406;28;20705;-66
2022/06/11 08:24:14;;;;;;;4.57;2.70;;;27.80;78.70;;;;;;5048567;28;20214;-66
2022/06/11 08:26:40;;;;;;;3.50;2.53;;;27.70;78.00;;;;;;5055036;28;20260;-67
2022/06/11 08:29:05;;;;;;;3.30;2.97;;;27.60;76.70;;;;;;5045362;28;20186;-67
2022/06/11 08:31:31;;;;;;;2.97;2.17;;;28.00;77.50;;;;;;5042714;28;20208;-67
2022/06/11 08:33:56;;;;;;;2.63;2.30;;;28.50;76.90;;;;;;5032039;28;20181;-67
2022/06/11 08:36:22;;;;;;;5.63;2.57;;;28.70;75.20;;;;;;5050754;28;20197;-67
2022/06/11 08:38:47;;;;;;;3.67;3.10;;;28.90;73.30;;;;;;5056842;28;20201;-67
2022/06/11 08:41:17;;;;;;;3.20;3.00;;;29.10;70.70;;;;;;5051243;28;20192;-67
2022/06/11 08:43:51;;;;;;;4.20;2.37;;;29.10;71.00;;;;;;5049024;28;20708;-67
2022/06/11 08:46:19;;;;;;;5.97;3.90;;;29.30;69.50;;;;;;5048069;28;21678;-67
2022/06/11 08:49:06;;;;;;;2.70;2.30;;;29.30;68.50;;;;;;5056979;28;20441;-67
2022/06/11 08:51:37;;;;;;;5.70;3.33;;;28.80;68.00;;;;;;5041954;28;20474;-67
2022/06/11 08:54:12;;;;;;;2.97;2.37;;;28.90;69.60;;;;;;5048187;28;20527;-67
2022/06/11 08:56:49;;;;;;;4.83;3.13;;;29.30;69.50;;;;;;5054016;28;20517;-67
2022/06/11 08:59:32;;;;;;;5.97;3.10;;;29.50;66.30;;;;;;5055488;28;20457;-67
2022/06/11 09:02:19;;;;;;;2.63;2.43;;;29.50;66.50;;;;;;5053197;28;20452;-67
2022/06/11 09:05:23;;;;;;;4.60;3.00;;;29.60;65.70;;;;;;5039310;28;20831;-67
2022/06/11 09:08:18;;;;;;;4.53;2.87;;;29.10;66.50;;;;;;5051873;28;20428;-67
2022/06/11 09:10:51;;;;;;;4.80;3.10;;;28.60;68.10;;;;;;5039197;28;20490;-67
2022/06/11 09:13:22;;;;;;;6.93;3.10;;;28.50;67.50;;;;;;5051412;28;20439;-67
2022/06/11 09:16:12;;;;;;;4.30;3.27;;;29.00;67.00;;;;;;5044842;28;20435;-67
2022/06/11 09:18:56;;;;;;;4.60;2.90;;;29.40;67.20;;;;;;5049887;28;20459;-67
2022/06/11 09:21:48;;;;;;;2.90;2.60;;;29.90;65.10;;;;;;5033276;28;20451;-67
2022/06/11 09:24:16;;;;;;;4.53;3.97;;;29.90;64.60;;;;;;5049065;28;20437;-67
2022/06/11 09:26:59;;;;;;;4.07;2.90;;;29.70;64.30;;;;;;5059752;28;20436;-67
2022/06/11 09:29:54;;;;;;;5.13;3.30;;;29.40;63.10;;;;;;5059524;28;20463;-64
2022/06/11 09:32:30;;;;;;;4.23;3.57;;;28.60;64.60;;;;;;5067293;28;20454;-67
2022/06/11 09:35:04;;;;;;;3.57;3.00;;;28.50;66.00;;;;;;5041823;28;21018;-67
2022/06/11 09:37:36;;;;;;;3.10;2.77;;;28.30;65.70;;;;;;5052518;28;20441;-67
2022/06/11 09:40:41;;;;;;;4.07;2.73;;;28.70;67.20;;;;;;5061252;28;20814;-67
2022/06/11 09:43:22;;;;;;;3.20;2.90;;;29.60;65.00;;;;;;5047109;28;20734;-64
2022/06/11 09:46:02;;;;;;;3.63;2.87;;;30.80;61.60;;;;;;5047519;28;20435;-64
2022/06/11 09:48:55;;;;;;;3.73;3.00;;;31.50;59.70;;;;;;5045125;28;20515;-64
2022/06/11 09:51:43;;;;;;;3.30;3.00;;;31.80;57.70;;;;;;5031878;28;20488;-65
2022/06/11 09:54:34;;;;;;;5.83;3.67;;;32.40;56.20;;;;;;5047309;28;20940;-65
2022/06/11 09:57:31;;;;;;;3.87;2.63;;;33.10;54.10;;;;;;5040531;28;20808;-64
2022/06/11 10:00:12;;;;;;;4.63;3.00;;;32.90;54.10;;;;;;5041854;28;20474;-65
2022/06/11 10:05:23;;;;;;;3.27;2.97;;;33.50;52.40;;;;;;5039805;28;20947;-65
2022/06/11 10:07:55;;;;;;;3.10;2.80;;;33.90;51.90;;;;;;5032118;28;20479;-64
2022/06/11 10:10:29;;;;;;;4.00;3.30;;;34.50;50.90;;;;;;5045610;28;20468;-64
2022/06/11 10:13:00;;;;;;;4.17;3.87;;;34.40;50.60;;;;;;5059203;28;20437;-64
2022/06/11 10:15:34;;;;;;;8.20;7.50;;;33.90;50.90;;;;;;5040134;28;20451;-64
2022/06/11 10:18:10;;;;;;;3.40;2.73;;;33.10;51.80;;;;;;5057378;28;20801;-64
2022/06/11 10:20:47;;;;;;;3.63;3.33;;;32.70;52.10;;;;;;5049510;28;20483;-64
2022/06/11 10:23:30;;;;;;;3.53;3.17;;;32.10;52.00;;;;;;5055264;28;20948;-65
2022/06/11 10:26:18;;;;;;;3.97;3.40;;;32.30;52.70;;;;;;5048304;28;20513;-64
2022/06/11 10:28:50;;;;;;;4.43;3.20;;;31.60;53.30;;;;;;5051369;28;20439;-64
2022/06/11 10:31:22;;;;;;;4.13;3.13;;;30.40;54.60;;;;;;5058006;28;20459;-65
2022/06/11 10:33:51;;;;;;;4.00;3.10;;;30.60;55.60;;;;;;5051480;28;20437;-64
2022/06/11 10:36:26;;;;;;;3.43;3.13;;;30.90;54.30;;;;;;5050782;28;20535;-64
2022/06/11 10:38:57;;;;;;;8.27;3.80;;;29.60;55.20;;;;;;5045289;28;20467;-66
2022/06/11 10:41:29;;;;;;;3.43;3.07;;;28.90;56.40;;;;;;5037656;28;20490;-67
2022/06/11 10:44:14;;;;;;;3.57;3.37;;;29.20;56.50;;;;;;5054379;28;20442;-66
2022/06/11 10:46:40;;;;;;;6.23;4.20;;;29.30;55.50;;;;;;5056946;28;20477;-67
2022/06/11 10:49:15;;;;;;;4.37;3.40;;;30.10;55.20;;;;;;5051633;28;20436;-67
2022/06/11 10:51:51;;;;;;;3.30;3.07;;;32.30;54.40;;;;;;5045490;28;20228;-64
2022/06/11 10:54:21;;;;;;;3.40;3.20;;;33.90;51.00;;;;;;5053377;28;20821;-64
2022/06/11 10:56:50;;;;;;;5.27;2.90;;;34.40;49.20;;;;;;5041739;28;20450;-64
2022/06/11 10:59:28;;;;;;;3.30;3.03;;;34.50;49.30;;;;;;5034196;28;20986;-65
2022/06/11 11:02:11;;;;;;;3.73;2.73;;;36.50;47.10;;;;;;5035466;28;20456;-64
2022/06/11 11:04:52;;;;;;;3.67;2.70;;;37.00;46.60;;;;;;5034094;28;20988;-65
2022/06/11 11:07:20;;;;;;;3.00;2.70;;;37.60;45.20;;;;;;5034178;28;20488;-65
2022/06/11 11:09:46;;;;;;;4.33;3.27;;;36.60;45.60;;;;;;5037928;28;20505;-65
2022/06/11 11:12:33;;;;;;;3.43;3.13;;;35.90;45.10;;;;;;5050603;28;20464;-65
2022/06/11 11:15:16;;;;;;;4.07;3.67;;;35.40;46.00;;;;;;5037532;28;20440;-65
2022/06/11 11:17:52;;;;;;;3.50;3.00;;;37.00;45.10;;;;;;5052490;28;20725;-64
2022/06/11 11:20:30;;;;;;;6.23;3.07;;;38.60;42.40;;;;;;5053985;28;20466;-65
2022/06/11 11:23:02;;;;;;;5.00;4.60;;;38.70;41.70;;;;;;5048285;28;21799;-65
2022/06/11 11:25:33;;;;;;;4.17;3.90;;;36.90;42.20;;;;;;5043288;28;20439;-65
2022/06/11 11:28:00;;;;;;;3.50;2.73;;;37.70;42.00;;;;;;5050215;28;20518;-65
2022/06/11 11:30:37;;;;;;;2.93;2.63;;;39.40;40.50;;;;;;5054339;28;20517;-64
2022/06/11 11:33:25;;;;;;;3.30;3.03;;;39.50;39.90;;;;;;5052283;28;20439;-65
2022/06/11 11:36:14;;;;;;;5.20;2.97;;;40.30;39.50;;;;;;5041505;28;20525;-65
2022/06/11 11:38:40;;;;;;;3.57;3.27;;;39.60;38.20;;;;;;5041989;28;20471;-65
2022/06/11 11:41:06;;;;;;;3.20;2.90;;;40.30;37.70;;;;;;5049611;28;20467;-65
2022/06/11 11:43:40;;;;;;;4.43;3.47;;;38.60;38.20;;;;;;5053588;28;20970;-65
2022/06/11 11:46:11;;;;;;;3.33;3.03;;;37.50;39.40;;;;;;5056933;28;20464;-65
2022/06/11 11:48:46;;;;;;;3.60;2.70;;;38.00;39.50;;;;;;5045690;28;20463;-65
2022/06/11 11:51:20;;;;;;;4.00;2.97;;;39.50;38.70;;;;;;5056633;28;20517;-65
2022/06/11 11:53:53;;;;;;;3.03;2.73;;;40.50;37.60;;;;;;5049100;28;20451;-65
2022/06/11 11:56:38;;;;;;;3.63;2.70;;;41.50;36.80;;;;;;5047119;28;20970;-65
2022/06/11 11:59:32;;;;;;;3.60;2.83;;;40.70;37.00;;;;;;5052183;28;20820;-65
2022/06/11 12:02:22;;;;;;;3.93;2.60;;;40.80;35.60;;;;;;5049283;28;20452;-65
2022/06/11 12:04:56;;;;;;;2.97;2.77;;;40.50;36.30;;;;;;5041408;28;20449;-65
2022/06/11 12:07:39;;;;;;;3.27;3.00;;;42.20;35.20;;;;;;5045370;28;20428;-65
2022/06/11 12:10:35;;;;;;;5.10;2.43;;;39.30;35.60;;;;;;5053567;28;20523;-65
2022/06/11 12:13:00;;;;;;;3.30;3.00;;;38.80;36.70;;;;;;5044694;28;20435;-65
2022/06/11 12:15:35;;;;;;;3.50;2.73;;;39.50;36.30;;;;;;5041248;28;20432;-65
2022/06/11 12:18:12;;;;;;;3.73;3.20;;;39.90;36.40;;;;;;5045675;28;20200;-65
2022/06/11 12:20:48;;;;;;;4.53;3.07;;;41.00;35.50;;;;;;5054341;28;20989;-65
2022/06/11 12:23:39;;;;;;;3.83;3.53;;;40.10;35.00;;;;;;5057611;28;20470;-65
2022/06/11 12:26:13;;;;;;;2.53;2.37;;;40.50;35.10;;;;;;5048906;28;20436;-65
2022/06/11 12:28:43;;;;;;;2.83;2.63;;;40.90;35.30;;;;;;5049663;28;20440;-65
2022/06/11 12:31:11;;;;;;;4.53;2.70;;;42.40;34.60;;;;;;5052927;28;20451;-65
2022/06/11 12:33:42;;;;;;;2.97;2.67;;;42.20;33.30;;;;;;5039801;28;20448;-65
2022/06/11 12:36:45;;;;;;;3.50;3.30;;;41.60;33.20;;;;;;5042179;28;20456;-65
2022/06/11 12:39:17;;;;;;;3.00;2.70;;;42.60;33.20;;;;;;5044437;28;20594;-65
2022/06/11 12:41:51;;;;;;;3.70;3.40;;;40.20;33.40;;;;;;5049868;28;20468;-65
2022/06/11 12:44:33;;;;;;;2.50;2.30;;;39.30;34.90;;;;;;5048980;28;20491;-65
2022/06/11 12:47:23;;;;;;;3.20;2.90;;;37.10;35.90;;;;;;5044279;28;20435;-65
2022/06/11 12:50:31;;;;;;;4.23;3.03;;;36.40;37.10;;;;;;5053602;28;20432;-65
2022/06/11 12:53:12;;;;;;;2.67;2.43;;;37.70;36.30;;;;;;5046057;28;20588;-65
2022/06/11 12:55:48;;;;;;;3.40;3.10;;;40.90;34.80;;;;;;5050160;28;20515;-65
2022/06/11 12:58:32;;;;;;;2.80;2.70;;;42.00;33.60;;;;;;5048346;28;20458;-65
2022/06/11 13:01:12;;;;;;;3.77;3.30;;;43.70;32.50;;;;;;5044206;28;20455;-65
2022/06/11 13:04:20;;;;;;;4.80;3.47;;;44.60;31.60;;;;;;5045489;28;20452;-65
2022/06/11 13:07:05;;;;;;;5.73;3.07;;;44.30;30.50;;;;;;5039669;28;20431;-65
2022/06/11 13:09:45;;;;;;;2.40;2.20;;;44.70;31.40;;;;;;5053707;28;20427;-65
2022/06/11 13:12:27;;;;;;;3.13;2.93;;;44.10;31.30;;;;;;5047867;28;20463;-65
2022/06/11 13:15:14;;;;;;;3.30;2.73;;;44.40;30.90;;;;;;5050185;28;20436;-65
2022/06/11 13:18:08;;;;;;;3.03;2.83;;;41.70;31.10;;;;;;5053894;28;20805;-65
2022/06/11 13:20:54;;;;;;;2.90;2.70;;;38.90;33.10;;;;;;5050528;28;20459;-65
2022/06/11 13:23:38;;;;;;;2.80;2.60;;;36.50;35.30;;;;;;5056533;28;20803;-64